sensor_id;sensor_type;location;lat;lon;timestamp;P1;durP1;ratioP1;P2;durP2;ratioP2
20170;SDS011;10245;51.344;6.620;2022-12-29T00:01:56;1.00;;;0.90;;
20170;SDS011;10245;51.344;6.620;2022-12-29T00:04:21;0.70;;;0.70;;
20170;SDS011;10245;51.344;6.620;2022-12-29T00:06:44;0.65;;;0.65;;
20170;SDS011;10245;51.344;6.620;2022-12-29T00:09:08;0.70;;;0.70;;
20170;SDS011;10245;51.344;6.620;2022-12-29T00:11:33;1.52;;;0.80;;
20170;SDS011;10245;51.344;6.620;2022-12-29T00:13:57;1.02;;;0.70;;
20170;SDS011;10245;51.344;6.620;2022-12-29T00:16:46;0.90;;;0.70;;
20170;SDS011;10245;51.344;6.620;2022-12-29T00:19:09;0.75;;;0.70;;
20170;SDS011;10245;51.344;6.620;2022-12-29T00:21:49;0.68;;;0.68;;
20170;SDS011;10245;51.344;6.620;2022-12-29T00:24:29;1.38;;;0.70;;
20170;SDS011;10245;51.344;6.620;2022-12-29T00:27:11;0.88;;;0.68;;
20170;SDS011;10245;51.344;6.620;2022-12-29T00:29:53;0.88;;;0.80;;
20170;SDS011;10245;51.344;6.620;2022-12-29T00:32:34;0.88;;;0.60;;
20170;SDS011;10245;51.344;6.620;2022-12-29T00:35:20;0.55;;;0.55;;
20170;SDS011;10245;51.344;6.620;2022-12-29T00:37:47;0.98;;;0.80;;
20170;SDS011;10245;51.344;6.620;2022-12-29T00:40:28;0.73;;;0.70;;
20170;SDS011;10245;51.344;6.620;2022-12-29T00:43:09;1.67;;;0.80;;
20170;SDS011;10245;51.344;6.620;2022-12-29T00:45:53;0.70;;;0.70;;
20170;SDS011;10245;51.344;6.620;2022-12-29T00:48:16;0.60;;;0.60;;
20170;SDS011;10245;51.344;6.620;2022-12-29T00:51:00;0.70;;;0.70;;
20170;SDS011;10245;51.344;6.620;2022-12-29T00:53:23;2.15;;;0.63;;
20170;SDS011;10245;51.344;6.620;2022-12-29T00:55:47;1.05;;;0.77;;
20170;SDS011;10245;51.344;6.620;2022-12-29T00:58:10;1.00;;;0.70;;
20170;SDS011;10245;51.344;6.620;2022-12-29T01:00:34;0.70;;;0.70;;
20170;SDS011;10245;51.344;6.620;2022-12-29T01:02:57;0.60;;;0.60;;
20170;SDS011;10245;51.344;6.620;2022-12-29T01:05:21;1.95;;;0.60;;
20170;SDS011;10245;51.344;6.620;2022-12-29T01:07:44;0.85;;;0.73;;
20170;SDS011;10245;51.344;6.620;2022-12-29T01:10:09;0.70;;;0.70;;
20170;SDS011;10245;51.344;6.620;2022-12-29T01:12:32;1.45;;;0.70;;
20170;SDS011;10245;51.344;6.620;2022-12-29T01:15:07;1.48;;;0.70;;
20170;SDS011;10245;51.344;6.620;2022-12-29T01:17:32;1.88;;;0.50;;
20170;SDS011;10245;51.344;6.620;2022-12-29T01:19:56;1.65;;;0.50;;
20170;SDS011;10245;51.344;6.620;2022-12-29T01:22:19;0.43;;;0.43;;
20170;SDS011;10245;51.344;6.620;2022-12-29T01:24:43;0.82;;;0.70;;
20170;SDS011;10245;51.344;6.620;2022-12-29T01:27:08;0.52;;;0.52;;
20170;SDS011;10245;51.344;6.620;2022-12-29T01:29:31;0.43;;;0.43;;
20170;SDS011;10245;51.344;6.620;2022-12-29T01:31:55;0.35;;;0.35;;
20170;SDS011;10245;51.344;6.620;2022-12-29T01:34:18;0.50;;;0.50;;
20170;SDS011;10245;51.344;6.620;2022-12-29T01:36:41;0.50;;;0.43;;
20170;SDS011;10245;51.344;6.620;2022-12-29T01:39:06;0.50;;;0.50;;
20170;SDS011;10245;51.344;6.620;2022-12-29T01:41:29;0.50;;;0.50;;
20170;SDS011;10245;51.344;6.620;2022-12-29T01:43:57;0.40;;;0.40;;
20170;SDS011;10245;51.344;6.620;2022-12-29T01:46:23;1.17;;;0.70;;
20170;SDS011;10245;51.344;6.620;2022-12-29T01:48:51;1.45;;;0.60;;
20170;SDS011;10245;51.344;6.620;2022-12-29T01:51:20;0.40;;;0.40;;
20170;SDS011;10245;51.344;6.620;2022-12-29T01:53:46;0.50;;;0.50;;
20170;SDS011;10245;51.344;6.620;2022-12-29T01:56:10;1.65;;;0.60;;
20170;SDS011;10245;51.344;6.620;2022-12-29T01:58:39;1.98;;;0.60;;
20170;SDS011;10245;51.344;6.620;2022-12-29T02:01:08;0.55;;;0.50;;
20170;SDS011;10245;51.344;6.620;2022-12-29T02:03:32;1.85;;;0.50;;
20170;SDS011;10245;51.344;6.620;2022-12-29T02:05:57;0.73;;;0.63;;
20170;SDS011;10245;51.344;6.620;2022-12-29T02:08:26;5.95;;;0.80;;
20170;SDS011;10245;51.344;6.620;2022-12-29T02:10:52;0.93;;;0.68;;
20170;SDS011;10245;51.344;6.620;2022-12-29T02:13:18;0.68;;;0.60;;
20170;SDS011;10245;51.344;6.620;2022-12-29T02:15:46;1.30;;;0.65;;
20170;SDS011;10245;51.344;6.620;2022-12-29T02:18:24;0.75;;;0.75;;
20170;SDS011;10245;51.344;6.620;2022-12-29T02:24:16;3.05;;;1.25;;
20170;SDS011;10245;51.344;6.620;2022-12-29T02:27:19;0.88;;;0.63;;
20170;SDS011;10245;51.344;6.620;2022-12-29T02:30:03;1.63;;;0.80;;
20170;SDS011;10245;51.344;6.620;2022-12-29T02:32:33;1.85;;;0.80;;
20170;SDS011;10245;51.344;6.620;2022-12-29T02:35:10;1.25;;;0.77;;
20170;SDS011;10245;51.344;6.620;2022-12-29T02:37:51;1.90;;;0.90;;
20170;SDS011;10245;51.344;6.620;2022-12-29T02:40:24;4.25;;;0.90;;
20170;SDS011;10245;51.344;6.620;2022-12-29T02:42:55;2.00;;;1.00;;
20170;SDS011;10245;51.344;6.620;2022-12-29T02:45:30;2.47;;;1.00;;
20170;SDS011;10245;51.344;6.620;2022-12-29T02:48:03;1.50;;;0.80;;
20170;SDS011;10245;51.344;6.620;2022-12-29T02:50:33;2.08;;;1.15;;
20170;SDS011;10245;51.344;6.620;2022-12-29T02:53:01;1.85;;;1.02;;
20170;SDS011;10245;51.344;6.620;2022-12-29T02:55:28;1.30;;;1.10;;
20170;SDS011;10245;51.344;6.620;2022-12-29T02:58:04;1.48;;;0.80;;
20170;SDS011;10245;51.344;6.620;2022-12-29T03:00:39;2.22;;;0.90;;
20170;SDS011;10245;51.344;6.620;2022-12-29T03:03:19;0.95;;;0.85;;
20170;SDS011;10245;51.344;6.620;2022-12-29T03:05:59;3.60;;;0.98;;
20170;SDS011;10245;51.344;6.620;2022-12-29T03:08:42;1.40;;;1.00;;
20170;SDS011;10245;51.344;6.620;2022-12-29T03:11:12;1.38;;;0.85;;
20170;SDS011;10245;51.344;6.620;2022-12-29T03:13:51;3.70;;;1.00;;
20170;SDS011;10245;51.344;6.620;2022-12-29T03:16:40;1.13;;;0.85;;
20170;SDS011;10245;51.344;6.620;2022-12-29T03:19:13;2.03;;;0.70;;
20170;SDS011;10245;51.344;6.620;2022-12-29T03:21:41;2.05;;;1.02;;
20170;SDS011;10245;51.344;6.620;2022-12-29T03:24:32;2.58;;;0.93;;
20170;SDS011;10245;51.344;6.620;2022-12-29T03:27:02;1.05;;;0.70;;
20170;SDS011;10245;51.344;6.620;2022-12-29T03:29:35;1.02;;;0.80;;
20170;SDS011;10245;51.344;6.620;2022-12-29T03:32:02;1.35;;;0.73;;
20170;SDS011;10245;51.344;6.620;2022-12-29T03:34:30;1.15;;;0.80;;
20170;SDS011;10245;51.344;6.620;2022-12-29T03:36:55;1.98;;;0.80;;
20170;SDS011;10245;51.344;6.620;2022-12-29T03:39:27;2.80;;;0.85;;
20170;SDS011;10245;51.344;6.620;2022-12-29T03:41:54;1.45;;;0.63;;
20170;SDS011;10245;51.344;6.620;2022-12-29T03:44:30;1.52;;;0.88;;
20170;SDS011;10245;51.344;6.620;2022-12-29T03:46:56;1.63;;;0.75;;
20170;SDS011;10245;51.344;6.620;2022-12-29T03:49:20;2.28;;;1.00;;
20170;SDS011;10245;51.344;6.620;2022-12-29T03:51:48;2.10;;;0.77;;
20170;SDS011;10245;51.344;6.620;2022-12-29T03:54:12;3.90;;;0.80;;
20170;SDS011;10245;51.344;6.620;2022-12-29T03:56:36;0.77;;;0.70;;
20170;SDS011;10245;51.344;6.620;2022-12-29T03:59:00;1.60;;;0.70;;
20170;SDS011;10245;51.344;6.620;2022-12-29T04:01:32;1.77;;;0.55;;
20170;SDS011;10245;51.344;6.620;2022-12-29T04:03:56;2.55;;;0.60;;
20170;SDS011;10245;51.344;6.620;2022-12-29T04:06:19;2.83;;;1.17;;
20170;SDS011;10245;51.344;6.620;2022-12-29T04:08:49;2.90;;;0.65;;
20170;SDS011;10245;51.344;6.620;2022-12-29T04:11:12;1.90;;;0.68;;
20170;SDS011;10245;51.344;6.620;2022-12-29T04:13:36;1.05;;;0.63;;
20170;SDS011;10245;51.344;6.620;2022-12-29T04:16:03;1.83;;;0.70;;
20170;SDS011;10245;51.344;6.620;2022-12-29T04:18:28;0.95;;;0.60;;
20170;SDS011;10245;51.344;6.620;2022-12-29T04:20:51;1.25;;;0.60;;
20170;SDS011;10245;51.344;6.620;2022-12-29T04:23:27;1.55;;;0.70;;
20170;SDS011;10245;51.344;6.620;2022-12-29T04:25:52;1.33;;;0.70;;
20170;SDS011;10245;51.344;6.620;2022-12-29T04:28:16;2.88;;;0.70;;
20170;SDS011;10245;51.344;6.620;2022-12-29T04:30:44;1.65;;;0.70;;
20170;SDS011;10245;51.344;6.620;2022-12-29T04:33:13;1.45;;;0.88;;
20170;SDS011;10245;51.344;6.620;2022-12-29T04:35:39;1.63;;;0.75;;
20170;SDS011;10245;51.344;6.620;2022-12-29T04:38:02;2.05;;;0.80;;
20170;SDS011;10245;51.344;6.620;2022-12-29T04:40:26;1.05;;;0.70;;
20170;SDS011;10245;51.344;6.620;2022-12-29T04:42:51;4.60;;;0.90;;
20170;SDS011;10245;51.344;6.620;2022-12-29T04:45:15;1.23;;;0.88;;
20170;SDS011;10245;51.344;6.620;2022-12-29T04:48:05;2.97;;;0.73;;
20170;SDS011;10245;51.344;6.620;2022-12-29T04:50:37;0.63;;;0.60;;
20170;SDS011;10245;51.344;6.620;2022-12-29T04:53:09;1.38;;;0.77;;
20170;SDS011;10245;51.344;6.620;2022-12-29T04:55:33;1.25;;;0.90;;
20170;SDS011;10245;51.344;6.620;2022-12-29T04:57:58;1.55;;;0.70;;
20170;SDS011;10245;51.344;6.620;2022-12-29T05:00:24;2.30;;;0.75;;
20170;SDS011;10245;51.344;6.620;2022-12-29T05:02:47;3.25;;;0.82;;
20170;SDS011;10245;51.344;6.620;2022-12-29T05:05:12;2.38;;;1.00;;
20170;SDS011;10245;51.344;6.620;2022-12-29T05:07:39;1.98;;;0.82;;
20170;SDS011;10245;51.344;6.620;2022-12-29T05:10:03;3.45;;;1.05;;
20170;SDS011;10245;51.344;6.620;2022-12-29T05:12:29;1.50;;;0.82;;
20170;SDS011;10245;51.344;6.620;2022-12-29T05:14:55;2.25;;;0.90;;
20170;SDS011;10245;51.344;6.620;2022-12-29T05:17:19;1.58;;;0.77;;
20170;SDS011;10245;51.344;6.620;2022-12-29T05:19:42;2.35;;;1.00;;
20170;SDS011;10245;51.344;6.620;2022-12-29T05:22:06;1.40;;;0.85;;
20170;SDS011;10245;51.344;6.620;2022-12-29T05:24:29;3.95;;;1.02;;
20170;SDS011;10245;51.344;6.620;2022-12-29T05:26:54;3.47;;;0.80;;
20170;SDS011;10245;51.344;6.620;2022-12-29T05:29:36;4.53;;;0.93;;
20170;SDS011;10245;51.344;6.620;2022-12-29T05:32:01;2.63;;;0.80;;
20170;SDS011;10245;51.344;6.620;2022-12-29T05:34:24;4.47;;;0.80;;
20170;SDS011;10245;51.344;6.620;2022-12-29T05:36:47;2.15;;;0.93;;
20170;SDS011;10245;51.344;6.620;2022-12-29T05:39:11;4.78;;;0.95;;
20170;SDS011;10245;51.344;6.620;2022-12-29T05:41:36;2.25;;;0.90;;
20170;SDS011;10245;51.344;6.620;2022-12-29T05:44:20;4.05;;;0.77;;
20170;SDS011;10245;51.344;6.620;2022-12-29T05:47:04;1.40;;;0.73;;
20170;SDS011;10245;51.344;6.620;2022-12-29T05:49:51;1.38;;;0.75;;
20170;SDS011;10245;51.344;6.620;2022-12-29T05:52:37;2.35;;;0.80;;
20170;SDS011;10245;51.344;6.620;2022-12-29T05:55:01;4.20;;;1.23;;
20170;SDS011;10245;51.344;6.620;2022-12-29T05:57:25;2.65;;;1.10;;
20170;SDS011;10245;51.344;6.620;2022-12-29T05:59:59;3.08;;;1.05;;
20170;SDS011;10245;51.344;6.620;2022-12-29T06:02:24;2.95;;;0.82;;
20170;SDS011;10245;51.344;6.620;2022-12-29T06:04:48;2.72;;;1.08;;
20170;SDS011;10245;51.344;6.620;2022-12-29T06:07:12;1.83;;;0.88;;
20170;SDS011;10245;51.344;6.620;2022-12-29T06:09:37;1.60;;;0.90;;
20170;SDS011;10245;51.344;6.620;2022-12-29T06:12:02;2.50;;;1.00;;
20170;SDS011;10245;51.344;6.620;2022-12-29T06:14:27;3.10;;;1.13;;
20170;SDS011;10245;51.344;6.620;2022-12-29T06:16:52;3.63;;;0.90;;
20170;SDS011;10245;51.344;6.620;2022-12-29T06:19:17;3.10;;;1.10;;
20170;SDS011;10245;51.344;6.620;2022-12-29T06:21:40;3.40;;;0.88;;
20170;SDS011;10245;51.344;6.620;2022-12-29T06:24:04;1.52;;;1.00;;
20170;SDS011;10245;51.344;6.620;2022-12-29T06:26:30;1.60;;;1.15;;
20170;SDS011;10245;51.344;6.620;2022-12-29T06:28:54;2.45;;;1.17;;
20170;SDS011;10245;51.344;6.620;2022-12-29T06:31:17;4.13;;;1.05;;
20170;SDS011;10245;51.344;6.620;2022-12-29T06:33:42;2.92;;;1.27;;
20170;SDS011;10245;51.344;6.620;2022-12-29T06:36:11;4.15;;;1.55;;
20170;SDS011;10245;51.344;6.620;2022-12-29T06:38:35;2.53;;;1.00;;
20170;SDS011;10245;51.344;6.620;2022-12-29T06:40:58;2.00;;;1.17;;
20170;SDS011;10245;51.344;6.620;2022-12-29T06:43:44;2.38;;;0.90;;
20170;SDS011;10245;51.344;6.620;2022-12-29T06:46:17;2.78;;;1.17;;
20170;SDS011;10245;51.344;6.620;2022-12-29T06:48:40;5.93;;;1.20;;
20170;SDS011;10245;51.344;6.620;2022-12-29T06:51:04;2.67;;;1.10;;
20170;SDS011;10245;51.344;6.620;2022-12-29T06:53:29;4.05;;;1.08;;
20170;SDS011;10245;51.344;6.620;2022-12-29T06:55:52;5.45;;;1.20;;
20170;SDS011;10245;51.344;6.620;2022-12-29T06:58:15;3.30;;;1.02;;
20170;SDS011;10245;51.344;6.620;2022-12-29T07:00:39;3.58;;;1.25;;
20170;SDS011;10245;51.344;6.620;2022-12-29T07:03:02;2.38;;;1.00;;
20170;SDS011;10245;51.344;6.620;2022-12-29T07:05:26;4.90;;;1.20;;
20170;SDS011;10245;51.344;6.620;2022-12-29T07:07:49;2.53;;;1.00;;
20170;SDS011;10245;51.344;6.620;2022-12-29T07:10:15;4.65;;;1.00;;
20170;SDS011;10245;51.344;6.620;2022-12-29T07:12:38;2.70;;;1.00;;
20170;SDS011;10245;51.344;6.620;2022-12-29T07:15:02;2.75;;;1.10;;
20170;SDS011;10245;51.344;6.620;2022-12-29T07:17:25;5.43;;;1.20;;
20170;SDS011;10245;51.344;6.620;2022-12-29T07:19:49;5.05;;;1.25;;
20170;SDS011;10245;51.344;6.620;2022-12-29T07:22:12;4.43;;;1.42;;
20170;SDS011;10245;51.344;6.620;2022-12-29T07:24:36;3.95;;;1.30;;
20170;SDS011;10245;51.344;6.620;2022-12-29T07:27:00;5.75;;;1.30;;
20170;SDS011;10245;51.344;6.620;2022-12-29T07:29:24;5.20;;;1.30;;
20170;SDS011;10245;51.344;6.620;2022-12-29T07:31:47;3.63;;;1.73;;
20170;SDS011;10245;51.344;6.620;2022-12-29T07:34:10;5.75;;;1.52;;
20170;SDS011;10245;51.344;6.620;2022-12-29T07:36:34;5.13;;;1.67;;
20170;SDS011;10245;51.344;6.620;2022-12-29T07:38:57;6.47;;;1.60;;
20170;SDS011;10245;51.344;6.620;2022-12-29T07:41:21;8.40;;;1.90;;
20170;SDS011;10245;51.344;6.620;2022-12-29T07:43:47;5.25;;;1.33;;
20170;SDS011;10245;51.344;6.620;2022-12-29T07:46:43;6.07;;;1.48;;
20170;SDS011;10245;51.344;6.620;2022-12-29T07:49:17;2.88;;;1.52;;
20170;SDS011;10245;51.344;6.620;2022-12-29T07:51:41;5.13;;;1.48;;
20170;SDS011;10245;51.344;6.620;2022-12-29T07:54:04;5.20;;;1.52;;
20170;SDS011;10245;51.344;6.620;2022-12-29T07:56:27;5.35;;;1.50;;
20170;SDS011;10245;51.344;6.620;2022-12-29T07:58:52;7.32;;;1.77;;
20170;SDS011;10245;51.344;6.620;2022-12-29T08:01:15;5.43;;;1.85;;
20170;SDS011;10245;51.344;6.620;2022-12-29T08:03:39;2.97;;;1.17;;
20170;SDS011;10245;51.344;6.620;2022-12-29T08:06:03;6.03;;;2.00;;
20170;SDS011;10245;51.344;6.620;2022-12-29T08:08:26;7.97;;;1.95;;
20170;SDS011;10245;51.344;6.620;2022-12-29T08:10:50;8.52;;;1.60;;
20170;SDS011;10245;51.344;6.620;2022-12-29T08:13:13;4.10;;;1.40;;
20170;SDS011;10245;51.344;6.620;2022-12-29T08:15:38;7.63;;;1.52;;
20170;SDS011;10245;51.344;6.620;2022-12-29T08:18:02;5.10;;;1.45;;
20170;SDS011;10245;51.344;6.620;2022-12-29T08:20:26;7.53;;;1.65;;
20170;SDS011;10245;51.344;6.620;2022-12-29T08:22:50;9.43;;;2.38;;
20170;SDS011;10245;51.344;6.620;2022-12-29T08:25:14;6.43;;;1.88;;
20170;SDS011;10245;51.344;6.620;2022-12-29T08:27:37;6.72;;;1.42;;
20170;SDS011;10245;51.344;6.620;2022-12-29T08:30:01;5.43;;;1.80;;
20170;SDS011;10245;51.344;6.620;2022-12-29T08:32:26;5.20;;;1.50;;
20170;SDS011;10245;51.344;6.620;2022-12-29T08:34:50;5.65;;;1.70;;
20170;SDS011;10245;51.344;6.620;2022-12-29T08:37:13;9.88;;;2.05;;
20170;SDS011;10245;51.344;6.620;2022-12-29T08:39:37;5.78;;;1.63;;
20170;SDS011;10245;51.344;6.620;2022-12-29T08:42:00;7.15;;;1.95;;
20170;SDS011;10245;51.344;6.620;2022-12-29T08:44:23;7.20;;;1.73;;
20170;SDS011;10245;51.344;6.620;2022-12-29T08:46:47;8.70;;;1.90;;
20170;SDS011;10245;51.344;6.620;2022-12-29T08:49:11;7.30;;;1.73;;
20170;SDS011;10245;51.344;6.620;2022-12-29T08:51:35;4.20;;;1.50;;
20170;SDS011;10245;51.344;6.620;2022-12-29T08:53:58;5.15;;;1.40;;
20170;SDS011;10245;51.344;6.620;2022-12-29T08:56:22;6.32;;;1.50;;
20170;SDS011;10245;51.344;6.620;2022-12-29T08:58:49;5.63;;;1.65;;
20170;SDS011;10245;51.344;6.620;2022-12-29T09:01:15;7.70;;;1.83;;
20170;SDS011;10245;51.344;6.620;2022-12-29T09:03:38;9.15;;;1.60;;
20170;SDS011;10245;51.344;6.620;2022-12-29T09:06:23;9.70;;;2.45;;
20170;SDS011;10245;51.344;6.620;2022-12-29T09:08:46;9.68;;;1.90;;
20170;SDS011;10245;51.344;6.620;2022-12-29T09:11:11;9.65;;;1.70;;
20170;SDS011;10245;51.344;6.620;2022-12-29T09:13:37;10.23;;;2.38;;
20170;SDS011;10245;51.344;6.620;2022-12-29T09:16:00;10.77;;;2.05;;
20170;SDS011;10245;51.344;6.620;2022-12-29T09:18:24;6.13;;;1.80;;
20170;SDS011;10245;51.344;6.620;2022-12-29T09:20:48;9.88;;;2.35;;
20170;SDS011;10245;51.344;6.620;2022-12-29T09:23:12;10.48;;;2.10;;
20170;SDS011;10245;51.344;6.620;2022-12-29T09:25:36;7.18;;;1.95;;
20170;SDS011;10245;51.344;6.620;2022-12-29T09:27:59;4.18;;;1.83;;
20170;SDS011;10245;51.344;6.620;2022-12-29T09:30:25;7.97;;;1.80;;
20170;SDS011;10245;51.344;6.620;2022-12-29T09:32:49;6.55;;;1.75;;
20170;SDS011;10245;51.344;6.620;2022-12-29T09:35:16;8.18;;;1.83;;
20170;SDS011;10245;51.344;6.620;2022-12-29T09:37:39;7.43;;;1.80;;
20170;SDS011;10245;51.344;6.620;2022-12-29T09:40:05;7.18;;;2.10;;
20170;SDS011;10245;51.344;6.620;2022-12-29T09:42:35;6.82;;;1.90;;
20170;SDS011;10245;51.344;6.620;2022-12-29T09:45:06;6.22;;;1.70;;
20170;SDS011;10245;51.344;6.620;2022-12-29T09:47:37;9.00;;;1.90;;
20170;SDS011;10245;51.344;6.620;2022-12-29T09:50:03;9.02;;;1.92;;
20170;SDS011;10245;51.344;6.620;2022-12-29T09:52:35;5.60;;;1.90;;
20170;SDS011;10245;51.344;6.620;2022-12-29T09:55:09;7.00;;;1.73;;
20170;SDS011;10245;51.344;6.620;2022-12-29T09:57:39;6.60;;;1.63;;
20170;SDS011;10245;51.344;6.620;2022-12-29T10:00:11;5.50;;;1.40;;
20170;SDS011;10245;51.344;6.620;2022-12-29T10:02:41;7.47;;;1.70;;
20170;SDS011;10245;51.344;6.620;2022-12-29T10:05:16;9.52;;;2.00;;
20170;SDS011;10245;51.344;6.620;2022-12-29T10:07:52;8.48;;;2.53;;
20170;SDS011;10245;51.344;6.620;2022-12-29T10:10:38;9.75;;;1.98;;
20170;SDS011;10245;51.344;6.620;2022-12-29T10:13:15;8.32;;;1.95;;
20170;SDS011;10245;51.344;6.620;2022-12-29T10:15:52;7.25;;;1.95;;
20170;SDS011;10245;51.344;6.620;2022-12-29T10:18:34;10.07;;;2.22;;
20170;SDS011;10245;51.344;6.620;2022-12-29T10:21:26;5.65;;;1.90;;
20170;SDS011;10245;51.344;6.620;2022-12-29T10:24:06;6.20;;;1.90;;
20170;SDS011;10245;51.344;6.620;2022-12-29T10:29:03;8.35;;;2.00;;
20170;SDS011;10245;51.344;6.620;2022-12-29T10:31:31;9.32;;;2.38;;
20170;SDS011;10245;51.344;6.620;2022-12-29T10:33:59;8.40;;;2.15;;
20170;SDS011;10245;51.344;6.620;2022-12-29T10:36:29;6.88;;;1.88;;
20170;SDS011;10245;51.344;6.620;2022-12-29T10:39:00;10.07;;;2.22;;
20170;SDS011;10245;51.344;6.620;2022-12-29T10:41:32;7.53;;;1.85;;
20170;SDS011;10245;51.344;6.620;2022-12-29T10:44:02;8.75;;;1.92;;
20170;SDS011;10245;51.344;6.620;2022-12-29T10:46:27;7.80;;;2.20;;
20170;SDS011;10245;51.344;6.620;2022-12-29T10:48:56;9.20;;;2.33;;
20170;SDS011;10245;51.344;6.620;2022-12-29T10:51:20;12.35;;;2.30;;
20170;SDS011;10245;51.344;6.620;2022-12-29T10:53:47;9.77;;;2.60;;
20170;SDS011;10245;51.344;6.620;2022-12-29T10:56:16;11.80;;;2.30;;
20170;SDS011;10245;51.344;6.620;2022-12-29T10:58:53;8.90;;;1.90;;
20170;SDS011;10245;51.344;6.620;2022-12-29T11:01:18;10.80;;;2.47;;
20170;SDS011;10245;51.344;6.620;2022-12-29T11:03:50;11.02;;;2.17;;
20170;SDS011;10245;51.344;6.620;2022-12-29T11:06:26;4.88;;;1.83;;
20170;SDS011;10245;51.344;6.620;2022-12-29T11:08:52;5.80;;;2.35;;
20170;SDS011;10245;51.344;6.620;2022-12-29T11:11:22;11.10;;;2.47;;
20170;SDS011;10245;51.344;6.620;2022-12-29T11:13:49;10.88;;;2.63;;
20170;SDS011;10245;51.344;6.620;2022-12-29T11:16:26;8.50;;;2.20;;
20170;SDS011;10245;51.344;6.620;2022-12-29T11:18:53;9.93;;;2.20;;
20170;SDS011;10245;51.344;6.620;2022-12-29T11:21:25;10.02;;;2.40;;
20170;SDS011;10245;51.344;6.620;2022-12-29T11:23:57;15.63;;;2.53;;
20170;SDS011;10245;51.344;6.620;2022-12-29T11:26:22;17.27;;;2.78;;
20170;SDS011;10245;51.344;6.620;2022-12-29T11:29:20;13.98;;;2.72;;
20170;SDS011;10245;51.344;6.620;2022-12-29T11:31:47;9.10;;;2.10;;
20170;SDS011;10245;51.344;6.620;2022-12-29T11:34:16;8.73;;;1.90;;
20170;SDS011;10245;51.344;6.620;2022-12-29T11:36:41;7.70;;;1.98;;
20170;SDS011;10245;51.344;6.620;2022-12-29T11:39:05;11.05;;;2.47;;
20170;SDS011;10245;51.344;6.620;2022-12-29T11:41:34;11.00;;;2.15;;
20170;SDS011;10245;51.344;6.620;2022-12-29T11:43:58;7.75;;;2.03;;
20170;SDS011;10245;51.344;6.620;2022-12-29T11:46:26;10.85;;;2.50;;
20170;SDS011;10245;51.344;6.620;2022-12-29T11:48:52;11.63;;;2.38;;
20170;SDS011;10245;51.344;6.620;2022-12-29T11:51:22;12.30;;;2.03;;
20170;SDS011;10245;51.344;6.620;2022-12-29T11:53:51;10.32;;;2.70;;
20170;SDS011;10245;51.344;6.620;2022-12-29T11:56:20;10.02;;;2.30;;
20170;SDS011;10245;51.344;6.620;2022-12-29T12:02:03;6.75;;;2.20;;
20170;SDS011;10245;51.344;6.620;2022-12-29T12:04:47;8.50;;;2.17;;
20170;SDS011;10245;51.344;6.620;2022-12-29T12:07:24;5.22;;;1.88;;
20170;SDS011;10245;51.344;6.620;2022-12-29T12:10:00;9.10;;;2.10;;
20170;SDS011;10245;51.344;6.620;2022-12-29T12:12:32;10.77;;;2.28;;
20170;SDS011;10245;51.344;6.620;2022-12-29T12:15:01;9.63;;;2.78;;
20170;SDS011;10245;51.344;6.620;2022-12-29T12:17:46;9.90;;;2.53;;
20170;SDS011;10245;51.344;6.620;2022-12-29T12:20:15;5.80;;;2.05;;
20170;SDS011;10245;51.344;6.620;2022-12-29T12:22:45;7.85;;;1.70;;
20170;SDS011;10245;51.344;6.620;2022-12-29T12:25:17;9.48;;;2.00;;
20170;SDS011;10245;51.344;6.620;2022-12-29T12:27:43;9.90;;;2.47;;
20170;SDS011;10245;51.344;6.620;2022-12-29T12:30:15;8.95;;;2.00;;
20170;SDS011;10245;51.344;6.620;2022-12-29T12:32:43;9.30;;;2.08;;
20170;SDS011;10245;51.344;6.620;2022-12-29T12:35:15;8.48;;;2.60;;
20170;SDS011;10245;51.344;6.620;2022-12-29T12:43:35;7.40;;;2.08;;
20170;SDS011;10245;51.344;6.620;2022-12-29T12:46:07;7.10;;;2.05;;
20170;SDS011;10245;51.344;6.620;2022-12-29T12:48:52;9.38;;;2.53;;
20170;SDS011;10245;51.344;6.620;2022-12-29T12:51:37;8.95;;;2.03;;
20170;SDS011;10245;51.344;6.620;2022-12-29T12:54:12;8.18;;;2.00;;
20170;SDS011;10245;51.344;6.620;2022-12-29T12:56:59;13.43;;;2.35;;
20170;SDS011;10245;51.344;6.620;2022-12-29T12:59:37;10.27;;;2.20;;
20170;SDS011;10245;51.344;6.620;2022-12-29T13:02:15;10.95;;;2.55;;
20170;SDS011;10245;51.344;6.620;2022-12-29T13:05:02;5.72;;;2.03;;
20170;SDS011;10245;51.344;6.620;2022-12-29T13:08:02;7.50;;;1.95;;
20170;SDS011;10245;51.344;6.620;2022-12-29T13:10:48;9.90;;;1.98;;
20170;SDS011;10245;51.344;6.620;2022-12-29T13:13:25;9.43;;;2.28;;
20170;SDS011;10245;51.344;6.620;2022-12-29T13:16:17;10.38;;;2.40;;
20170;SDS011;10245;51.344;6.620;2022-12-29T13:18:52;7.63;;;1.88;;
20170;SDS011;10245;51.344;6.620;2022-12-29T13:21:27;10.10;;;2.72;;
20170;SDS011;10245;51.344;6.620;2022-12-29T13:24:18;9.85;;;2.15;;
20170;SDS011;10245;51.344;6.620;2022-12-29T13:26:48;10.90;;;2.40;;
20170;SDS011;10245;51.344;6.620;2022-12-29T13:29:18;10.40;;;2.28;;
20170;SDS011;10245;51.344;6.620;2022-12-29T13:31:49;11.20;;;2.20;;
20170;SDS011;10245;51.344;6.620;2022-12-29T13:34:21;7.90;;;2.17;;
20170;SDS011;10245;51.344;6.620;2022-12-29T13:36:58;8.90;;;2.20;;
20170;SDS011;10245;51.344;6.620;2022-12-29T13:39:26;8.52;;;2.30;;
20170;SDS011;10245;51.344;6.620;2022-12-29T13:41:56;6.75;;;1.75;;
20170;SDS011;10245;51.344;6.620;2022-12-29T13:44:22;9.13;;;2.45;;
20170;SDS011;10245;51.344;6.620;2022-12-29T13:46:57;7.55;;;1.95;;
20170;SDS011;10245;51.344;6.620;2022-12-29T13:49:25;10.32;;;2.15;;
20170;SDS011;10245;51.344;6.620;2022-12-29T13:51:50;8.40;;;2.33;;
20170;SDS011;10245;51.344;6.620;2022-12-29T13:54:26;5.60;;;2.05;;
20170;SDS011;10245;51.344;6.620;2022-12-29T13:57:03;6.55;;;2.08;;
20170;SDS011;10245;51.344;6.620;2022-12-29T13:59:36;10.88;;;2.50;;
20170;SDS011;10245;51.344;6.620;2022-12-29T14:02:09;9.02;;;2.53;;
20170;SDS011;10245;51.344;6.620;2022-12-29T14:04:54;7.25;;;1.90;;
20170;SDS011;10245;51.344;6.620;2022-12-29T14:07:20;8.50;;;2.17;;
20170;SDS011;10245;51.344;6.620;2022-12-29T14:09:47;8.90;;;2.42;;
20170;SDS011;10245;51.344;6.620;2022-12-29T14:12:19;7.93;;;2.00;;
20170;SDS011;10245;51.344;6.620;2022-12-29T14:14:51;8.60;;;2.17;;
20170;SDS011;10245;51.344;6.620;2022-12-29T14:17:16;8.73;;;2.22;;
20170;SDS011;10245;51.344;6.620;2022-12-29T14:19:43;7.60;;;2.20;;
20170;SDS011;10245;51.344;6.620;2022-12-29T14:22:08;7.88;;;1.70;;
20170;SDS011;10245;51.344;6.620;2022-12-29T14:24:40;10.98;;;2.33;;
20170;SDS011;10245;51.344;6.620;2022-12-29T14:33:12;7.82;;;2.08;;
20170;SDS011;10245;51.344;6.620;2022-12-29T14:35:38;5.35;;;1.67;;
20170;SDS011;10245;51.344;6.620;2022-12-29T14:38:07;6.53;;;1.90;;
20170;SDS011;10245;51.344;6.620;2022-12-29T14:40:49;8.23;;;2.53;;
20170;SDS011;10245;51.344;6.620;2022-12-29T14:43:18;8.93;;;1.85;;
20170;SDS011;10245;51.344;6.620;2022-12-29T14:45:51;7.90;;;2.20;;
20170;SDS011;10245;51.344;6.620;2022-12-29T14:48:27;9.00;;;2.10;;
20170;SDS011;10245;51.344;6.620;2022-12-29T14:53:50;7.90;;;2.13;;
20170;SDS011;10245;51.344;6.620;2022-12-29T14:56:14;10.80;;;2.67;;
20170;SDS011;10245;51.344;6.620;2022-12-29T14:58:41;7.45;;;2.10;;
20170;SDS011;10245;51.344;6.620;2022-12-29T15:01:15;8.60;;;1.98;;
20170;SDS011;10245;51.344;6.620;2022-12-29T15:03:45;5.63;;;2.20;;
20170;SDS011;10245;51.344;6.620;2022-12-29T15:06:13;9.48;;;2.30;;
20170;SDS011;10245;51.344;6.620;2022-12-29T15:08:44;8.25;;;2.00;;
20170;SDS011;10245;51.344;6.620;2022-12-29T15:11:14;5.72;;;1.67;;
20170;SDS011;10245;51.344;6.620;2022-12-29T15:13:43;8.25;;;2.13;;
20170;SDS011;10245;51.344;6.620;2022-12-29T15:16:20;7.82;;;1.98;;
20170;SDS011;10245;51.344;6.620;2022-12-29T15:18:46;10.25;;;2.20;;
20170;SDS011;10245;51.344;6.620;2022-12-29T15:21:11;7.45;;;2.05;;
20170;SDS011;10245;51.344;6.620;2022-12-29T15:23:37;5.43;;;1.50;;